岡山グライダークラブ活動状況掲示板

岡山グライダークラブ
岡山市浦安南町639-1 岡南飛行場
 使用機:シャイベ式 SF25C型 ファルケ   JA2330
      ヴァレンティン式17E型 タイフーン  JA2342
 練習日:毎日曜日  クラブルーム:電話 086-265-1810
この掲示板は岡山グライダークラブの活動状況をお知らせする掲示板です。
!!!この掲示板は投稿規制をしています。!!!
クラブ関連各種情報は 岡山グライダークラブクラブルーム      を       .
  ブリーフイング情報は  岡山グライダークラブブリーフィングルーム  をご覧下さい。 .
※写真はクリックすると拡大して見ることが出来ます。
岡南飛行場へのアクセス等は 岡南飛行場管理事務所 をご覧ください。
クラブの ホームページ ができました。

!!!最近のコロナ感染拡大に伴い、当面の間、見学者等の受入を中止しております。再開まで今しばらくお待ちください!!!

 
04月11日 
by OGC at 2021/4/12(月) 00:55:47 No.20210412005315  削除コメント
1024 x 768 x 79,896バイト
No.1

04月11日
本日の参加者
  会員      18名
  その他      4名


@本日の様子






METAR
RJBK 110000Z VRB02KT 30KM FEW030CU 11/03 Q1034 A3054
RJOB 110000Z VRB02KT CAVOK 11/00 Q1033
RJOT 110000Z 03005KT 350V110 CAVOK 11/05 Q1033
RJOA 110000Z VRB03KT CAVOK 11/02 Q1033
TAF
RJOB 102306Z 1100/1206 12005KT 9999 FEW030
RJOT 102305Z 1100/1206 05008KT 9999 FEW030
RJOA 102305Z 1100/1206 14006KT 9999 FEW030

本日は久々の快晴に恵まれ、会員18名、ゲスト4名が集まりました。
久々のフライトなので、訓練生はTGL等、ライセンサーはタイフーン整備後
のテストフライトや特定技能審査等で、操縦感覚を思い出していました。

最近のコロナ感染拡大に伴い、当面の間、見学者の受入を自粛することとしま
した。再開までの間、しばらくお待ちください。


解散    18:10

1番機  10:25離陸 撤収機  17:50着陸 

SF25C JA2330 ファルケ     12Flt.4h50min  
17E   JA2342 タイフーン    04Flt.1h05min  
合計                    16Flt.5h55min

    << 戻る || ホームページ || 最新の掲示板へ